Terminal Aerodrome Forecast
Issued by NWS La Crosse, WI

Home | Current Version | Previous Version | Text Only | Print | Product List | Glossary On
Versions: 1 2 3 4 5 6 7 8 9 10 11 12 13 14 15 16 17 18 19 20 21 22 23 24 25 26 27 28 29 30 31 32 33 34 35 36 37 38
000
FTUS43 KARX 271727
TAFRST
TAF
KRST 271727Z 2718/2818 30016G25KT P6SM BKN150
     FM272100 30015G22KT P6SM VCSH BKN040
     FM280100 33009KT P6SM OVC030
     FM280300 33009KT P6SM OVC015
     FM280600 34009KT P6SM BKN008
     FM281600 35012KT P6SM BKN010=

USA.gov is the U.S. government's official web portal to all federal, state and local government web resources and services.